Tula, Mississippi
Current Conditions -  °F | °C
As of 7:55 AM on Monday 24 Nov 2014 (Local Time) from KUOX Reporting Station
Scattered Clouds Scattered Clouds  
Wind Chill: 43°   Ceiling: Unl
Heat Index: 48°   Visibility: 10mi
Dew Point: 41°   Wind: 14mph
Humidity: 76%   Direction: 260°W
Pressure: 29.83"   Gusts: 24mph
Location:  34.23°N, 89.36°W
Report Text: KUOX 241355Z AUTO 26012G21KT 10SM SCT023 09/05 A2983 RMK AO2 PWINO PNO
Loading
Personal Weather Stations






























Interactive Weather Map New forecast layout! Learn more

10-Day Weather Forecast

Advertisements
Track Severe Weather on mobile